Date,TemperatureHighF,TemperatureAvgF,TemperatureLowF,DewpointHighF,DewpointAvgF,DewpointLowF,HumidityHigh,HumidityAvg,HumidityLow,PressureMaxIn,PressureMinIn,WindSpeedMaxMPH,WindSpeedAvgMPH,GustSpeedMaxMPH,PrecipitationSumIn
2013-2-1,67.3,54.6,47.3,47.7,45.6,44.2,96,74,47,30.16,30.04,12,3,13,0.00
2013-2-2,56.5,49.9,47.1,49.1,46.8,43.5,96,89,76,30.23,30.15,11,2,14,0.00
2013-2-3,55.9,49.8,46.2,47.3,44.2,41.2,95,81,65,30.19,30.08,13,4,17,0.00
2013-2-4,55.9,48.1,45.9,49.1,45.6,43.7,96,91,78,30.11,30.01,13,3,17,0.00
2013-2-5,54.0,49.1,46.8,48.2,44.9,41.0,94,86,76,30.09,30.01,15,5,21,0.00
2013-2-6,55.6,48.7,43.0,47.1,43.6,39.9,94,83,58,30.13,30.06,18,3,22,0.00
2013-2-7,53.4,47.8,43.2,47.7,43.4,38.7,95,85,65,30.11,29.93,13,2,16,0.21
2013-2-8,51.6,46.6,40.5,43.7,38.9,26.2,94,76,40,29.96,29.87,17,3,21,0.38
2013-2-9,58.8,49.6,42.6,41.4,33.6,21.6,83,55,25,30.03,29.93,11,2,14,0.00
2013-2-10,61.9,49.0,41.7,45.1,40.2,33.4,93,73,38,30.06,29.96,9,1,14,0.00
2013-2-11,64.0,52.4,46.6,47.3,36.1,25.2,93,58,25,30.17,30.00,12,3,15,0.00
2013-2-12,60.8,49.4,43.2,46.8,44.6,40.1,96,85,49,30.29,30.16,11,2,13,0.00
2013-2-13,56.5,48.9,44.1,48.4,45.8,43.0,97,90,70,30.28,30.16,13,3,17,0.00
2013-2-14,70.2,55.2,45.3,48.7,44.7,41.5,98,71,38,30.18,30.09,7,2,11,0.00
2013-2-15,73.6,61.1,52.9,45.9,41.8,38.7,76,51,29,30.19,30.12,9,3,11,0.00
2013-2-16,69.4,56.3,48.2,52.0,46.1,41.9,94,70,43,30.15,29.99,15,4,20,0.00
2013-2-17,57.6,50.5,45.7,46.9,44.9,42.3,94,82,57,29.99,29.92,14,4,20,0.00
2013-2-18,52.5,47.7,46.0,45.1,41.4,37.0,93,79,65,29.98,29.90,19,6,23,0.00
2013-2-19,47.1,44.5,40.8,44.1,38.9,33.3,93,81,64,29.90,29.69,19,6,29,0.39
2013-2-20,55.6,47.2,39.6,43.5,38.4,32.4,83,72,50,29.99,29.78,17,5,23,0.00
2013-2-21,57.6,49.1,43.2,44.4,39.0,33.1,90,69,40,30.10,29.99,15,4,18,0.00
2013-2-22,57.6,49.2,43.0,46.2,43.2,39.6,92,80,55,30.19,30.10,19,5,24,0.00
2013-2-23,55.6,50.0,45.7,47.8,40.5,30.4,96,71,48,30.19,30.10,20,6,22,0.01
2013-2-24,62.1,51.1,46.0,43.5,32.1,21.7,90,52,25,30.18,30.11,15,4,18,0.00
2013-2-25,59.0,49.6,44.1,47.5,44.0,42.1,94,82,64,30.20,30.11,17,4,19,0.00
2013-2-26,63.1,50.8,42.6,43.9,37.6,22.8,89,65,22,30.15,30.08,13,3,19,0.00
2013-2-27,62.8,51.4,44.6,48.9,44.8,39.9,95,79,55,30.30,30.14,15,4,20,0.00
2013-2-28,58.3,51.3,47.7,51.8,48.8,46.6,98,91,79,30.39,30.30,15,4,19,0.00